createdAt,value
2023-04-14T00:00:54.082Z,7.31
2023-04-14T00:03:22.182Z,7.31
2023-04-14T00:05:50.320Z,7.31
2023-04-14T00:08:18.235Z,7.30
2023-04-14T00:10:46.125Z,7.28
2023-04-14T00:13:14.049Z,7.27
2023-04-14T00:15:42.780Z,7.26
2023-04-14T00:18:10.893Z,7.23
2023-04-14T00:20:38.921Z,7.21
2023-04-14T00:23:06.817Z,7.19
2023-04-14T00:25:34.671Z,7.18
2023-04-14T00:28:02.633Z,7.15
2023-04-14T00:30:30.917Z,7.12
2023-04-14T00:32:58.922Z,7.10
2023-04-14T00:35:26.918Z,7.07
2023-04-14T00:37:57.047Z,7.04
2023-04-14T00:40:25.314Z,7.01
2023-04-14T00:42:53.287Z,6.99
2023-04-14T00:45:21.259Z,6.98
2023-04-14T00:47:50.856Z,7.01
2023-04-14T00:50:21.074Z,7.07
2023-04-14T00:52:50.698Z,7.14
2023-04-14T00:55:22.537Z,7.23
2023-04-14T00:57:51.160Z,7.31
2023-04-14T01:00:19.888Z,7.39
2023-04-14T01:02:47.953Z,7.45
2023-04-14T01:05:16.320Z,7.52
2023-04-14T01:07:45.620Z,7.58
2023-04-14T01:10:13.680Z,7.60
2023-04-14T01:12:57.602Z,7.59
2023-04-14T01:15:51.996Z,7.57
2023-04-14T01:18:36.313Z,7.55
2023-04-14T01:21:13.405Z,7.53
2023-04-14T01:23:50.213Z,7.49
2023-04-14T01:26:26.482Z,7.46
2023-04-14T01:29:24.580Z,7.43
2023-04-14T01:32:10.343Z,7.39
2023-04-14T01:34:50.699Z,7.32
2023-04-14T01:37:30.383Z,7.26
2023-04-14T01:40:03.774Z,7.21
2023-04-14T01:42:36.304Z,7.20
2023-04-14T01:45:16.522Z,7.19
2023-04-14T01:47:45.477Z,7.20
2023-04-14T01:50:15.107Z,7.22
2023-04-14T01:52:47.961Z,7.25
2023-04-14T01:55:19.458Z,7.27
2023-04-14T01:57:51.235Z,7.27
2023-04-14T02:00:20.743Z,7.27
2023-04-14T02:02:52.455Z,7.26
2023-04-14T02:05:22.566Z,7.25
2023-04-14T02:07:53.265Z,7.23
2023-04-14T02:10:22.326Z,7.19
2023-04-14T02:12:52.986Z,7.17
2023-04-14T02:15:23.512Z,7.13
2023-04-14T02:17:53.060Z,7.09
2023-04-14T02:20:22.275Z,7.05
2023-04-14T02:22:50.316Z,7.02
2023-04-14T02:25:18.271Z,7.00
2023-04-14T02:27:52.543Z,6.99
2023-04-14T02:30:33.151Z,7.00
2023-04-14T02:33:05.637Z,6.99
2023-04-14T02:35:46.321Z,6.99
2023-04-14T02:38:21.981Z,7.01
2023-04-14T02:40:50.838Z,7.02
2023-04-14T02:43:32.391Z,7.03
2023-04-14T02:46:05.613Z,7.04
2023-04-14T02:48:35.072Z,7.05
2023-04-14T02:51:06.069Z,7.05
2023-04-14T02:53:34.927Z,7.05
2023-04-14T02:56:27.205Z,7.04
2023-04-14T02:58:58.170Z,7.01
2023-04-14T03:01:27.890Z,6.99
2023-04-14T03:03:57.953Z,6.96
2023-04-14T03:06:28.923Z,6.92
2023-04-14T03:08:58.315Z,6.87
2023-04-14T03:11:28.101Z,6.86
2023-04-14T03:13:57.651Z,6.86
2023-04-14T03:16:27.737Z,6.86
2023-04-14T03:18:56.703Z,6.86
2023-04-14T03:21:26.769Z,6.85
2023-04-14T03:23:56.383Z,6.85
2023-04-14T03:26:27.575Z,6.86
2023-04-14T03:28:59.952Z,6.86
2023-04-14T03:31:37.287Z,6.85
2023-04-14T03:34:08.334Z,6.83
2023-04-14T03:36:41.332Z,6.78
2023-04-14T03:39:12.670Z,6.73
2023-04-14T03:41:48.010Z,6.67
2023-04-14T03:44:19.160Z,6.64
2023-04-14T03:46:49.553Z,6.60
2023-04-14T03:49:21.054Z,6.57
2023-04-14T03:51:53.459Z,6.53
2023-04-14T03:54:24.356Z,6.50
2023-04-14T03:56:56.973Z,6.50
2023-04-14T03:59:27.720Z,6.49
2023-04-14T04:01:56.661Z,6.50
2023-04-14T04:04:25.970Z,6.52
2023-04-14T04:06:54.139Z,6.52
2023-04-14T04:09:24.756Z,6.52
2023-04-14T04:11:53.997Z,6.53
2023-04-14T04:14:25.529Z,6.54
2023-04-14T04:16:56.644Z,6.55
2023-04-14T04:19:26.377Z,6.55
2023-04-14T04:22:00.069Z,6.53
2023-04-14T04:24:32.690Z,6.49
2023-04-14T04:27:01.438Z,6.51
2023-04-14T04:29:32.143Z,6.53
2023-04-14T04:32:01.167Z,6.56
2023-04-14T04:34:32.428Z,6.59
2023-04-14T04:37:02.261Z,6.60
2023-04-14T04:39:30.813Z,6.60
2023-04-14T04:42:07.084Z,6.62
2023-04-14T04:44:35.329Z,6.66
2023-04-14T04:47:04.183Z,6.72
2023-04-14T04:49:32.065Z,6.80
2023-04-14T04:52:03.676Z,6.90
2023-04-14T04:54:31.692Z,6.99
2023-04-14T04:57:00.094Z,7.08
2023-04-14T04:59:28.112Z,7.15
2023-04-14T05:01:56.488Z,7.24
2023-04-14T05:04:24.768Z,7.35
2023-04-14T05:06:52.658Z,7.47
2023-04-14T05:09:20.507Z,7.60
2023-04-14T05:11:48.665Z,7.75
2023-04-14T05:14:16.580Z,7.93
2023-04-14T05:16:44.460Z,8.09
2023-04-14T05:19:12.369Z,8.25
2023-04-14T05:21:40.538Z,8.39
2023-04-14T05:24:09.078Z,8.55
2023-04-14T05:26:57.875Z,8.69
2023-04-14T05:29:24.871Z,8.87
2023-04-14T05:31:52.873Z,9.05
2023-04-14T05:34:20.787Z,9.24
2023-04-14T05:36:48.758Z,9.33
2023-04-14T05:39:16.762Z,9.37
2023-04-14T05:41:44.784Z,9.42
2023-04-14T05:44:14.914Z,9.47
2023-04-14T05:46:42.913Z,9.52
2023-04-14T05:49:10.889Z,9.55
2023-04-14T05:51:39.960Z,9.61
2023-04-14T05:54:08.144Z,9.66
2023-04-14T05:56:36.499Z,9.71
2023-04-14T05:59:04.365Z,9.75
2023-04-14T06:01:32.375Z,9.77
2023-04-14T06:04:00.906Z,9.81
2023-04-14T06:06:29.509Z,9.88
2023-04-14T06:08:57.435Z,9.96
2023-04-14T06:11:25.617Z,10.06
2023-04-14T06:13:53.580Z,10.13
2023-04-14T06:16:21.605Z,10.17
2023-04-14T06:18:49.614Z,10.19
2023-04-14T06:21:17.588Z,10.22
2023-04-14T06:23:45.640Z,10.19
2023-04-14T06:26:14.007Z,10.19
2023-04-14T06:28:43.957Z,10.18
2023-04-14T06:31:14.256Z,10.19
2023-04-14T06:33:42.330Z,10.18
2023-04-14T06:36:10.607Z,10.20
2023-04-14T06:38:38.909Z,10.24
2023-04-14T06:41:07.267Z,10.30
2023-04-14T06:43:35.305Z,10.39
2023-04-14T06:46:03.212Z,10.50
2023-04-14T06:48:31.638Z,10.64
2023-04-14T06:50:59.707Z,10.80
2023-04-14T06:53:27.657Z,10.94
2023-04-14T06:56:02.290Z,11.14
2023-04-14T06:58:30.426Z,11.35
2023-04-14T07:01:03.240Z,11.54
2023-04-14T07:03:31.762Z,11.78
2023-04-14T07:06:08.475Z,11.97
2023-04-14T07:08:36.596Z,12.16
2023-04-14T07:11:07.177Z,12.35
2023-04-14T07:13:36.285Z,12.52
2023-04-14T07:16:06.665Z,12.72
2023-04-14T07:18:36.219Z,12.85
2023-04-14T07:21:04.460Z,12.91
2023-04-14T07:23:33.885Z,12.96
2023-04-14T07:26:02.259Z,13.06
2023-04-14T07:28:30.264Z,13.15
2023-04-14T07:30:58.368Z,13.17
2023-04-14T07:33:30.563Z,13.18
2023-04-14T07:36:03.553Z,13.29
2023-04-14T07:38:33.220Z,13.43
2023-04-14T07:41:06.544Z,13.59
2023-04-14T07:43:37.553Z,13.83
2023-04-14T07:46:07.876Z,14.13
2023-04-14T07:48:37.459Z,14.52
2023-04-14T07:51:06.533Z,14.86
2023-04-14T07:53:40.630Z,15.06
2023-04-14T07:56:09.448Z,15.26
2023-04-14T07:58:38.062Z,15.36
2023-04-14T08:01:06.720Z,15.47
2023-04-14T08:03:38.026Z,15.56
2023-04-14T08:06:07.683Z,15.60
2023-04-14T08:08:36.219Z,15.67
2023-04-14T08:11:04.420Z,15.66
2023-04-14T08:13:32.376Z,15.52
2023-04-14T08:16:00.874Z,15.45
2023-04-14T08:18:29.120Z,15.44
2023-04-14T08:20:57.104Z,15.40
2023-04-14T08:23:25.148Z,15.31
2023-04-14T08:25:53.391Z,15.25
2023-04-14T08:28:21.394Z,15.33
2023-04-14T08:30:49.532Z,15.46
2023-04-14T08:33:17.627Z,15.58
2023-04-14T08:35:45.900Z,15.64
2023-04-14T08:38:24.608Z,15.70
2023-04-14T08:40:59.102Z,15.75
2023-04-14T08:43:27.326Z,15.83
2023-04-14T08:45:58.259Z,15.92
2023-04-14T08:48:30.840Z,16.06
2023-04-14T08:51:07.300Z,16.21
2023-04-14T08:53:43.016Z,16.42
2023-04-14T08:56:14.255Z,16.58
2023-04-14T08:58:43.227Z,16.68
2023-04-14T09:01:11.502Z,16.75
2023-04-14T09:03:41.175Z,16.75
2023-04-14T09:06:09.687Z,16.81
2023-04-14T09:08:38.473Z,16.90
2023-04-14T09:11:06.545Z,16.96
2023-04-14T09:13:36.158Z,17.04
2023-04-14T09:16:04.382Z,17.11
2023-04-14T09:18:34.470Z,17.13
2023-04-14T09:21:49.628Z,17.21
2023-04-14T09:23:52.674Z,17.27
2023-04-14T09:26:20.894Z,17.35
2023-04-14T09:28:48.769Z,17.48
2023-04-14T09:31:16.898Z,17.51
2023-04-14T09:33:52.891Z,17.50
2023-04-14T09:36:23.542Z,17.56
2023-04-14T09:38:51.990Z,17.57
2023-04-14T09:41:26.327Z,17.67
2023-04-14T09:43:54.249Z,17.75
2023-04-14T09:46:22.667Z,17.87
2023-04-14T09:48:56.147Z,17.94
2023-04-14T09:51:28.849Z,17.90
2023-04-14T09:54:03.099Z,17.98
2023-04-14T09:56:31.606Z,18.02
2023-04-14T09:59:01.441Z,18.03
2023-04-14T10:01:32.428Z,18.00
2023-04-14T10:04:02.329Z,17.99
2023-04-14T10:06:33.133Z,18.00
2023-04-14T10:09:02.036Z,17.94
2023-04-14T10:11:35.426Z,17.90
2023-04-14T10:14:05.524Z,17.92
2023-04-14T10:16:34.543Z,17.99
2023-04-14T10:19:03.916Z,18.05
2023-04-14T10:21:32.922Z,18.14
2023-04-14T10:24:01.663Z,18.22
2023-04-14T10:26:30.469Z,18.27
2023-04-14T10:28:59.484Z,18.39
2023-04-14T10:31:32.788Z,18.49
2023-04-14T10:34:14.926Z,18.53
2023-04-14T10:36:44.005Z,18.48
2023-04-14T10:39:13.004Z,18.38
2023-04-14T10:41:43.920Z,18.27
2023-04-14T10:44:24.927Z,18.17
2023-04-14T10:46:54.340Z,17.97
2023-04-14T10:49:25.861Z,17.82
2023-04-14T10:51:53.860Z,17.81
2023-04-14T10:54:22.078Z,17.80
2023-04-14T10:57:12.800Z,17.82
2023-04-14T10:59:42.636Z,17.82
2023-04-14T11:02:28.648Z,17.76
2023-04-14T11:05:11.861Z,17.66
2023-04-14T11:07:54.616Z,17.63
2023-04-14T11:10:23.038Z,17.58
2023-04-14T11:12:57.901Z,17.49
2023-04-14T11:15:57.436Z,17.47
2023-04-14T11:18:29.142Z,17.44
2023-04-14T11:21:07.665Z,17.42
2023-04-14T11:23:37.439Z,17.33
2023-04-14T11:26:06.746Z,17.27
2023-04-14T11:28:36.294Z,17.26
2023-04-14T11:31:10.843Z,17.23
2023-04-14T11:33:41.816Z,17.14
2023-04-14T11:36:13.102Z,17.07
2023-04-14T11:38:42.988Z,17.05
2023-04-14T11:41:14.197Z,16.99
2023-04-14T11:43:46.754Z,16.99
2023-04-14T11:46:16.467Z,16.99
2023-04-14T11:48:44.611Z,16.97
2023-04-14T11:51:12.732Z,16.91
2023-04-14T11:53:41.520Z,16.90
2023-04-14T11:56:11.686Z,16.89
2023-04-14T11:58:39.707Z,16.90
2023-04-14T12:01:14.505Z,16.92
2023-04-14T12:03:43.256Z,16.94
2023-04-14T12:06:11.606Z,16.95
2023-04-14T12:08:39.654Z,16.99
2023-04-14T12:11:17.678Z,17.06
2023-04-14T12:13:47.347Z,17.13
2023-04-14T12:16:17.067Z,17.23
2023-04-14T12:18:45.110Z,17.37
2023-04-14T12:21:18.717Z,17.47
2023-04-14T12:23:51.086Z,17.55
2023-04-14T12:26:20.627Z,17.64
2023-04-14T12:28:57.232Z,17.72
2023-04-14T12:31:30.138Z,17.76
2023-04-14T12:34:03.830Z,17.78
2023-04-14T12:36:45.383Z,17.81
2023-04-14T12:39:17.994Z,17.83
2023-04-14T12:41:47.014Z,17.83
2023-04-14T12:44:16.865Z,17.80
2023-04-14T12:46:52.932Z,17.76
2023-04-14T12:49:37.812Z,17.74
2023-04-14T12:52:08.457Z,17.66
2023-04-14T12:54:52.216Z,17.58
2023-04-14T12:57:22.065Z,17.51
2023-04-14T12:59:50.912Z,17.44
2023-04-14T13:02:19.188Z,17.38
2023-04-14T13:04:47.425Z,17.34
2023-04-14T13:07:15.452Z,17.30
2023-04-14T13:09:43.720Z,17.26
2023-04-14T13:12:11.800Z,17.22
2023-04-14T13:14:39.795Z,17.20
2023-04-14T13:17:07.910Z,17.17
2023-04-14T13:19:36.065Z,17.15
2023-04-14T13:22:03.993Z,17.12
2023-04-14T13:24:32.535Z,17.08
2023-04-14T13:27:01.106Z,17.06
2023-04-14T13:29:29.087Z,17.03
2023-04-14T13:31:57.088Z,17.03
2023-04-14T13:34:25.088Z,17.03
2023-04-14T13:36:53.096Z,17.01
2023-04-14T13:39:21.400Z,16.99
2023-04-14T13:41:49.585Z,16.95
2023-04-14T13:44:18.628Z,16.91
2023-04-14T13:46:46.667Z,16.89
2023-04-14T13:49:14.836Z,16.87
2023-04-14T13:51:43.069Z,16.83
2023-04-14T13:54:10.966Z,16.80
2023-04-14T13:56:38.974Z,16.77
2023-04-14T13:59:06.972Z,16.72
2023-04-14T14:01:34.826Z,16.69
2023-04-14T14:04:03.036Z,16.65
2023-04-14T14:06:31.437Z,16.60
2023-04-14T14:09:06.058Z,16.55
2023-04-14T14:11:34.729Z,16.51
2023-04-14T14:14:02.881Z,16.48
2023-04-14T14:16:36.783Z,16.45
2023-04-14T14:19:10.090Z,16.42
2023-04-14T14:21:38.105Z,16.38
2023-04-14T14:24:06.369Z,16.33
2023-04-14T14:26:34.262Z,16.28
2023-04-14T14:29:02.280Z,16.26
2023-04-14T14:31:30.328Z,16.23
2023-04-14T14:33:58.346Z,16.21
2023-04-14T14:36:27.624Z,16.16
2023-04-14T14:38:55.657Z,16.06
2023-04-14T14:41:23.619Z,15.90
2023-04-14T14:43:51.471Z,15.79
2023-04-14T14:46:19.390Z,15.66
2023-04-14T14:48:47.403Z,15.53
2023-04-14T14:51:15.706Z,15.35
2023-04-14T14:53:43.410Z,15.22
2023-04-14T14:56:11.288Z,15.08
2023-04-14T14:58:39.120Z,14.97
2023-04-14T15:01:07.461Z,14.86
2023-04-14T15:03:35.676Z,14.75
2023-04-14T15:06:04.075Z,14.68
2023-04-14T15:08:31.940Z,14.57
2023-04-14T15:10:59.882Z,14.48
2023-04-14T15:13:28.274Z,14.38
2023-04-14T15:15:57.790Z,14.23
2023-04-14T15:18:26.008Z,14.09
2023-04-14T15:20:54.612Z,13.96
2023-04-14T15:23:23.036Z,13.84
2023-04-14T15:25:51.096Z,13.75
2023-04-14T15:28:19.068Z,13.65
2023-04-14T15:30:46.966Z,13.50
2023-04-14T15:33:14.882Z,13.34
2023-04-14T15:35:42.906Z,13.24
2023-04-14T15:38:11.039Z,13.13
2023-04-14T15:40:40.062Z,13.02
2023-04-14T15:43:08.102Z,12.92
2023-04-14T15:45:36.054Z,12.81
2023-04-14T15:48:04.184Z,12.73
2023-04-14T15:50:32.150Z,12.66
2023-04-14T15:53:00.035Z,12.61
2023-04-14T15:55:28.484Z,12.56
2023-04-14T15:57:56.534Z,12.52
2023-04-14T16:00:24.538Z,12.40
2023-04-14T16:02:52.498Z,12.31
2023-04-14T16:05:20.690Z,12.27
2023-04-14T16:07:48.865Z,12.21
2023-04-14T16:10:16.822Z,12.14
2023-04-14T16:12:45.168Z,12.09
2023-04-14T16:15:12.999Z,12.03
2023-04-14T16:17:42.377Z,11.97
2023-04-14T16:20:12.494Z,11.92
2023-04-14T16:22:40.573Z,11.85
2023-04-14T16:25:08.925Z,11.78
2023-04-14T16:27:36.839Z,11.71
2023-04-14T16:30:05.613Z,11.64
2023-04-14T16:32:33.579Z,11.58
2023-04-14T16:35:01.993Z,11.54
2023-04-14T16:37:30.146Z,11.48
2023-04-14T16:39:58.244Z,11.42
2023-04-14T16:42:26.571Z,11.36
2023-04-14T16:44:56.241Z,11.29
2023-04-14T16:47:24.184Z,11.24
2023-04-14T16:49:52.971Z,11.19
2023-04-14T16:52:20.963Z,11.17
2023-04-14T16:54:49.113Z,11.15
2023-04-14T16:57:17.098Z,11.13
2023-04-14T16:59:46.334Z,11.11
2023-04-14T17:02:14.521Z,11.10
2023-04-14T17:04:45.403Z,11.16
2023-04-14T17:07:13.500Z,11.22
2023-04-14T17:09:44.687Z,11.22
2023-04-14T17:12:12.605Z,11.19
2023-04-14T17:14:40.661Z,11.13
2023-04-14T17:17:08.676Z,11.08
2023-04-14T17:19:36.588Z,11.02
2023-04-14T17:22:04.601Z,10.99
2023-04-14T17:24:32.840Z,10.97
2023-04-14T17:27:00.767Z,10.95
2023-04-14T17:29:29.704Z,10.95
2023-04-14T17:31:57.813Z,10.98
2023-04-14T17:34:26.404Z,10.98
2023-04-14T17:36:54.504Z,10.98
2023-04-14T17:39:26.954Z,10.99
2023-04-14T17:41:56.362Z,11.00
2023-04-14T17:44:34.188Z,11.00
2023-04-14T17:47:04.931Z,10.98
2023-04-14T17:49:34.220Z,10.94
2023-04-14T17:52:17.694Z,10.91
2023-04-14T17:54:46.847Z,10.92
2023-04-14T17:57:15.008Z,10.92
2023-04-14T17:59:45.014Z,10.93
2023-04-14T18:02:14.321Z,10.90
2023-04-14T18:04:42.581Z,10.88
2023-04-14T18:07:10.473Z,10.87
2023-04-14T18:09:38.387Z,10.86
2023-04-14T18:12:06.317Z,10.84
2023-04-14T18:14:34.276Z,10.82
2023-04-14T18:17:02.294Z,10.79
2023-04-14T18:19:30.384Z,10.76
2023-04-14T18:21:58.198Z,10.75
2023-04-14T18:26:59.271Z,10.76
2023-04-14T18:29:27.736Z,10.77
2023-04-14T18:31:56.689Z,10.79
2023-04-14T18:34:24.802Z,10.78
2023-04-14T18:36:52.809Z,10.76
2023-04-14T18:39:20.829Z,10.74
2023-04-14T18:41:49.172Z,10.74
2023-04-14T18:44:17.635Z,10.73
2023-04-14T18:46:45.611Z,10.72
2023-04-14T18:49:13.837Z,10.70
2023-04-14T18:51:41.683Z,10.68
2023-04-14T18:54:10.679Z,10.66
2023-04-14T18:56:39.425Z,10.64
2023-04-14T18:59:10.171Z,10.63
2023-04-14T19:01:38.152Z,10.61
2023-04-14T19:04:08.051Z,10.61
2023-04-14T19:06:36.741Z,10.61
2023-04-14T19:09:05.228Z,10.63
2023-04-14T19:11:36.142Z,10.65
2023-04-14T19:14:04.824Z,10.66
2023-04-14T19:16:33.732Z,10.68
2023-04-14T19:19:02.249Z,10.69
2023-04-14T19:21:30.858Z,10.73
2023-04-14T19:23:58.759Z,10.77
2023-04-14T19:26:27.772Z,10.79
2023-04-14T19:28:58.916Z,10.80
2023-04-14T19:31:28.583Z,10.80
2023-04-14T19:33:58.685Z,10.79
2023-04-14T19:36:26.745Z,10.77
2023-04-14T19:38:54.653Z,10.74
2023-04-14T19:41:22.658Z,10.71
2023-04-14T19:43:52.242Z,10.69
2023-04-14T19:46:20.183Z,10.64
2023-04-14T19:48:48.405Z,10.59
2023-04-14T19:51:16.354Z,10.54
2023-04-14T19:53:46.566Z,10.50
2023-04-14T19:56:14.612Z,10.45
2023-04-14T19:58:43.687Z,10.39
2023-04-14T20:01:11.751Z,10.33
2023-04-14T20:04:07.812Z,10.29
2023-04-14T20:06:29.672Z,10.24
2023-04-14T20:08:57.499Z,10.21
2023-04-14T20:11:28.241Z,10.19
2023-04-14T20:13:56.314Z,10.16
2023-04-14T20:16:24.677Z,10.14
2023-04-14T20:18:52.682Z,10.10
2023-04-14T20:21:20.636Z,10.07
2023-04-14T20:23:48.911Z,10.03
2023-04-14T20:26:17.434Z,9.97
2023-04-14T20:28:45.742Z,9.90
2023-04-14T20:31:13.857Z,9.82
2023-04-14T20:33:42.233Z,9.73
2023-04-14T20:36:10.270Z,9.64
2023-04-14T20:38:38.240Z,9.54
2023-04-14T20:41:06.251Z,9.43
2023-04-14T20:43:34.516Z,9.31
2023-04-14T20:46:04.271Z,9.20
2023-04-14T20:48:32.392Z,9.09
2023-04-14T20:51:01.595Z,9.01
2023-04-14T20:53:30.237Z,8.95
2023-04-14T20:55:58.247Z,8.89
2023-04-14T20:58:26.129Z,8.85
2023-04-14T21:00:54.012Z,8.83
2023-04-14T21:03:24.108Z,8.82
2023-04-14T21:05:52.239Z,8.80
2023-04-14T21:08:20.159Z,8.77
2023-04-14T21:11:15.566Z,8.76
2023-04-14T21:15:28.938Z,8.73
2023-04-14T21:16:24.319Z,8.68
2023-04-14T21:18:52.289Z,8.64
2023-04-14T21:21:20.206Z,8.59
2023-04-14T21:23:48.212Z,8.52
2023-04-14T21:26:16.819Z,8.46
2023-04-14T21:28:44.853Z,8.40
2023-04-14T21:31:12.891Z,8.34
2023-04-14T21:33:42.040Z,8.29
2023-04-14T21:36:10.988Z,8.28
2023-04-14T21:38:39.405Z,8.26
2023-04-14T21:41:10.954Z,8.23
2023-04-14T21:43:38.916Z,8.21
2023-04-14T21:46:07.398Z,8.18
2023-04-14T21:48:35.856Z,8.15
2023-04-14T21:51:04.034Z,8.12
2023-04-14T21:53:32.545Z,8.10
2023-04-14T21:56:10.307Z,8.08
2023-04-14T21:58:40.462Z,8.03
2023-04-14T22:01:10.541Z,7.98
2023-04-14T22:03:40.860Z,7.92
2023-04-14T22:06:11.496Z,7.85
2023-04-14T22:08:40.681Z,7.78
2023-04-14T22:11:08.803Z,7.73
2023-04-14T22:13:36.734Z,7.68
2023-04-14T22:16:05.410Z,7.64
2023-04-14T22:18:33.397Z,7.59
2023-04-14T22:21:01.724Z,7.57
2023-04-14T22:23:29.867Z,7.56
2023-04-14T22:25:58.435Z,7.55
2023-04-14T22:28:27.396Z,7.55
2023-04-14T22:30:55.409Z,7.53
2023-04-14T22:33:23.409Z,7.53
2023-04-14T22:35:51.936Z,7.52
2023-04-14T22:38:19.816Z,7.48
2023-04-14T22:40:49.290Z,7.44
2023-04-14T22:43:18.679Z,7.45
2023-04-14T22:45:47.215Z,7.46
2023-04-14T22:48:15.138Z,7.45
2023-04-14T22:50:43.137Z,7.46
2023-04-14T22:53:10.978Z,7.47
2023-04-14T22:55:38.882Z,7.49
2023-04-14T22:58:07.359Z,7.50
2023-04-14T23:00:35.289Z,7.51
2023-04-14T23:03:03.385Z,7.51
2023-04-14T23:05:31.299Z,7.50
2023-04-14T23:07:59.444Z,7.50
2023-04-14T23:10:27.686Z,7.42
2023-04-14T23:12:55.645Z,7.38
2023-04-14T23:15:23.697Z,7.36
2023-04-14T23:17:51.816Z,7.32
2023-04-14T23:20:20.671Z,7.25
2023-04-14T23:22:48.663Z,7.24
2023-04-14T23:25:17.662Z,7.27
2023-04-14T23:27:45.658Z,7.29
2023-04-14T23:30:14.199Z,7.32
2023-04-14T23:32:42.253Z,7.35
2023-04-14T23:35:10.444Z,7.39
2023-04-14T23:37:39.074Z,7.43
2023-04-14T23:40:08.312Z,7.45
2023-04-14T23:42:36.219Z,7.45
2023-04-14T23:45:05.502Z,7.43
2023-04-14T23:47:33.559Z,7.40
2023-04-14T23:50:01.996Z,7.36
2023-04-14T23:52:29.953Z,7.32
2023-04-14T23:54:57.897Z,7.27
2023-04-14T23:57:26.855Z,7.20
2023-04-14T23:59:54.727Z,7.16
